createdAt,value
2023-04-18T00:00:49.624Z,98816.00
2023-04-18T00:03:16.883Z,98813.73
2023-04-18T00:05:48.374Z,98818.36
2023-04-18T00:08:15.668Z,98821.42
2023-04-18T00:10:42.816Z,98820.79
2023-04-18T00:13:10.590Z,98823.33
2023-04-18T00:15:37.745Z,98820.35
2023-04-18T00:18:06.417Z,98823.42
2023-04-18T00:20:33.550Z,98822.95
2023-04-18T00:23:01.011Z,98819.98
2023-04-18T00:25:28.055Z,98823.77
2023-04-18T00:27:54.995Z,98822.63
2023-04-18T00:30:21.838Z,98820.29
2023-04-18T00:32:48.788Z,98821.17
2023-04-18T00:35:16.256Z,98822.98
2023-04-18T00:37:43.376Z,98824.10
2023-04-18T00:40:10.972Z,98825.91
2023-04-18T00:42:37.881Z,98818.44
2023-04-18T00:45:06.547Z,98818.02
2023-04-18T00:47:33.461Z,98812.98
2023-04-18T00:50:00.859Z,98811.80
2023-04-18T00:52:28.552Z,98803.39
2023-04-18T00:54:55.982Z,98799.46
2023-04-18T00:57:23.024Z,98800.12
2023-04-18T00:59:50.170Z,98799.66
2023-04-18T01:02:17.881Z,98795.29
2023-04-18T01:04:45.329Z,98796.02
2023-04-18T01:07:13.019Z,98792.27
2023-04-18T01:09:41.881Z,98788.46
2023-04-18T01:12:08.902Z,98791.05
2023-04-18T01:14:35.922Z,98790.82
2023-04-18T01:17:03.172Z,98791.42
2023-04-18T01:19:30.604Z,98793.44
2023-04-18T01:21:57.668Z,98793.73
2023-04-18T01:24:27.345Z,98798.14
2023-04-18T01:26:54.376Z,98797.98
2023-04-18T01:29:21.723Z,98795.36
2023-04-18T01:31:49.969Z,98800.38
2023-04-18T01:34:18.608Z,98796.11
2023-04-18T01:36:46.555Z,98795.86
2023-04-18T01:39:14.254Z,98789.98
2023-04-18T01:41:42.640Z,98793.05
2023-04-18T01:44:09.678Z,98793.70
2023-04-18T01:46:37.389Z,98787.83
2023-04-18T01:49:04.490Z,98788.64
2023-04-18T01:51:32.130Z,98787.12
2023-04-18T01:53:59.192Z,98785.71
2023-04-18T01:56:26.363Z,98783.15
2023-04-18T01:58:53.257Z,98789.27
2023-04-18T02:01:20.921Z,98792.94
2023-04-18T02:03:48.456Z,98791.64
2023-04-18T02:06:16.061Z,98795.77
2023-04-18T02:08:42.927Z,98792.36
2023-04-18T02:11:10.262Z,98788.90
2023-04-18T02:13:37.289Z,98787.48
2023-04-18T02:16:04.383Z,98784.95
2023-04-18T02:18:34.970Z,98783.20
2023-04-18T02:21:02.737Z,98785.64
2023-04-18T02:23:30.042Z,98784.81
2023-04-18T02:25:57.123Z,98781.05
2023-04-18T02:28:24.166Z,98786.14
2023-04-18T02:30:51.481Z,98787.19
2023-04-18T02:33:18.465Z,98786.16
2023-04-18T02:35:45.924Z,98785.58
2023-04-18T02:38:14.190Z,98785.60
2023-04-18T02:40:41.452Z,98792.37
2023-04-18T02:43:09.087Z,98795.53
2023-04-18T02:45:36.323Z,98799.11
2023-04-18T02:48:03.604Z,98797.38
2023-04-18T02:50:30.923Z,98796.38
2023-04-18T02:52:58.130Z,98799.64
2023-04-18T02:55:27.293Z,98801.98
2023-04-18T02:57:54.603Z,98799.31
2023-04-18T03:00:21.694Z,98807.70
2023-04-18T03:02:48.766Z,98803.16
2023-04-18T03:05:15.784Z,98804.55
2023-04-18T03:07:42.831Z,98802.27
2023-04-18T03:10:10.794Z,98804.83
2023-04-18T03:12:37.844Z,98805.92
2023-04-18T03:15:05.598Z,98806.68
2023-04-18T03:17:33.046Z,98803.86
2023-04-18T03:20:00.124Z,98806.52
2023-04-18T03:22:27.320Z,98804.38
2023-04-18T03:24:54.403Z,98800.80
2023-04-18T03:27:21.445Z,98807.90
2023-04-18T03:29:48.386Z,98805.81
2023-04-18T03:32:15.433Z,98803.69
2023-04-18T03:34:42.373Z,98808.17
2023-04-18T03:37:09.649Z,98809.06
2023-04-18T03:39:36.870Z,98814.70
2023-04-18T03:42:04.224Z,98817.66
2023-04-18T03:44:31.679Z,98817.55
2023-04-18T03:46:59.030Z,98813.48
2023-04-18T03:49:26.219Z,98811.48
2023-04-18T03:51:53.157Z,98807.58
2023-04-18T03:54:20.267Z,98815.77
2023-04-18T03:56:47.802Z,98818.12
2023-04-18T03:59:15.804Z,98818.61
2023-04-18T04:01:43.147Z,98820.72
2023-04-18T04:04:12.553Z,98821.27
2023-04-18T04:06:40.013Z,98818.97
2023-04-18T04:09:07.157Z,98823.56
2023-04-18T04:11:34.366Z,98826.40
2023-04-18T04:14:01.599Z,98825.44
2023-04-18T04:16:29.128Z,98831.05
2023-04-18T04:18:56.262Z,98832.79
2023-04-18T04:21:23.305Z,98839.38
2023-04-18T04:23:50.451Z,98836.55
2023-04-18T04:26:17.600Z,98833.52
2023-04-18T04:28:46.847Z,98841.77
2023-04-18T04:31:14.206Z,98838.80
2023-04-18T04:33:41.389Z,98844.40
2023-04-18T04:36:09.799Z,98847.10
2023-04-18T04:38:38.758Z,98853.81
2023-04-18T04:41:08.050Z,98854.27
2023-04-18T04:43:35.302Z,98853.52
2023-04-18T04:46:08.129Z,98855.17
2023-04-18T04:48:35.829Z,98858.45
2023-04-18T04:51:03.006Z,98864.61
2023-04-18T04:53:33.419Z,98864.92
2023-04-18T04:56:00.864Z,98862.72
2023-04-18T04:58:28.950Z,98865.71
2023-04-18T05:00:56.215Z,98869.02
2023-04-18T05:03:23.480Z,98875.62
2023-04-18T05:05:50.931Z,98884.19
2023-04-18T05:08:18.144Z,98883.02
2023-04-18T05:10:46.280Z,98885.40
2023-04-18T05:13:13.980Z,98883.79
2023-04-18T05:15:41.230Z,98881.06
2023-04-18T05:18:09.051Z,98884.46
2023-04-18T05:20:36.419Z,98884.98
2023-04-18T05:23:03.592Z,98889.47
2023-04-18T05:25:31.974Z,98892.73
2023-04-18T05:28:01.577Z,98901.30
2023-04-18T05:30:33.534Z,98896.13
2023-04-18T05:33:08.293Z,98910.02
2023-04-18T05:35:41.700Z,98909.95
2023-04-18T05:38:08.675Z,98912.64
2023-04-18T05:40:36.053Z,98916.79
2023-04-18T05:43:03.083Z,98917.73
2023-04-18T05:45:30.144Z,98918.95
2023-04-18T05:47:57.530Z,98921.15
2023-04-18T05:50:24.640Z,98929.06
2023-04-18T05:52:51.896Z,98924.05
2023-04-18T05:55:19.041Z,98928.66
2023-04-18T05:57:45.986Z,98928.29
2023-04-18T06:00:14.009Z,98926.04
2023-04-18T06:02:41.473Z,98931.23
2023-04-18T06:05:09.589Z,98926.36
2023-04-18T06:07:36.853Z,98928.31
2023-04-18T06:10:06.223Z,98922.89
2023-04-18T06:12:33.075Z,98929.33
2023-04-18T06:15:00.285Z,98923.41
2023-04-18T06:17:27.766Z,98921.52
2023-04-18T06:19:54.729Z,98921.45
2023-04-18T06:22:21.804Z,98928.41
2023-04-18T06:24:49.113Z,98933.21
2023-04-18T06:27:30.130Z,98933.76
2023-04-18T06:29:58.278Z,98938.13
2023-04-18T06:32:25.758Z,98940.30
2023-04-18T06:34:53.592Z,98944.64
2023-04-18T06:37:21.130Z,98947.92
2023-04-18T06:39:48.436Z,98951.44
2023-04-18T06:42:15.565Z,98951.27
2023-04-18T06:44:43.419Z,98952.91
2023-04-18T06:47:11.475Z,98954.47
2023-04-18T06:49:38.580Z,98961.23
2023-04-18T06:52:05.867Z,98963.48
2023-04-18T06:54:32.915Z,98971.50
2023-04-18T06:57:00.522Z,98976.64
2023-04-18T06:59:27.443Z,98978.60
2023-04-18T07:01:54.663Z,98981.23
2023-04-18T07:04:22.179Z,98987.02
2023-04-18T07:06:49.408Z,98985.71
2023-04-18T07:09:16.759Z,98983.87
2023-04-18T07:11:43.867Z,98979.83
2023-04-18T07:14:12.549Z,98983.28
2023-04-18T07:16:40.050Z,98976.39
2023-04-18T07:19:07.160Z,98985.85
2023-04-18T07:21:34.294Z,98984.54
2023-04-18T07:24:01.559Z,98988.77
2023-04-18T07:26:28.763Z,98984.58
2023-04-18T07:28:55.741Z,98988.54
2023-04-18T07:31:23.304Z,98987.61
2023-04-18T07:33:50.642Z,98983.32
2023-04-18T07:36:18.036Z,98982.92
2023-04-18T07:38:45.875Z,98986.52
2023-04-18T07:41:13.115Z,98990.33
2023-04-18T07:43:40.880Z,98992.00
2023-04-18T07:46:08.317Z,98994.84
2023-04-18T07:48:35.565Z,98995.73
2023-04-18T07:51:03.555Z,98992.71
2023-04-18T07:53:30.903Z,98997.33
2023-04-18T07:55:58.141Z,98995.42
2023-04-18T07:58:25.563Z,99003.73
2023-04-18T08:00:52.693Z,99002.75
2023-04-18T08:03:20.265Z,99004.92
2023-04-18T08:05:47.352Z,99007.27
2023-04-18T08:08:14.438Z,99005.93
2023-04-18T08:10:41.542Z,99007.46
2023-04-18T08:13:09.154Z,99009.45
2023-04-18T08:15:36.072Z,99006.31
2023-04-18T08:18:03.247Z,99010.06
2023-04-18T08:20:30.666Z,99011.19
2023-04-18T08:23:07.357Z,99006.11
2023-04-18T08:25:36.844Z,99007.60
2023-04-18T08:28:04.380Z,99013.00
2023-04-18T08:30:31.807Z,99012.06
2023-04-18T08:33:01.066Z,99010.81
2023-04-18T08:35:28.156Z,99015.17
2023-04-18T08:37:55.167Z,99007.88
2023-04-18T08:40:22.688Z,99013.77
2023-04-18T08:42:52.461Z,99015.80
2023-04-18T08:45:20.362Z,99015.70
2023-04-18T08:47:47.674Z,99015.28
2023-04-18T08:50:15.379Z,99017.08
2023-04-18T08:52:49.157Z,99014.45
2023-04-18T08:55:17.168Z,99016.86
2023-04-18T08:57:45.020Z,99016.45
2023-04-18T09:00:13.014Z,99013.02
2023-04-18T09:02:44.198Z,99011.74
2023-04-18T09:05:22.200Z,99006.84
2023-04-18T09:07:51.197Z,99010.59
2023-04-18T09:10:31.068Z,99011.40
2023-04-18T09:12:59.434Z,99016.39
2023-04-18T09:15:29.465Z,99016.02
2023-04-18T09:18:00.168Z,99015.52
2023-04-18T09:20:35.351Z,99015.24
2023-04-18T09:23:04.524Z,99016.30
2023-04-18T09:25:42.703Z,99019.23
2023-04-18T09:28:25.310Z,99011.45
2023-04-18T09:30:53.467Z,99013.00
2023-04-18T09:33:29.550Z,99019.76
2023-04-18T09:35:57.725Z,99019.45
2023-04-18T09:38:42.763Z,99018.69
2023-04-18T09:41:12.066Z,99016.21
2023-04-18T09:43:39.882Z,99012.65
2023-04-18T09:46:08.545Z,99016.41
2023-04-18T09:48:36.612Z,99018.42
2023-04-18T09:51:10.042Z,99011.98
2023-04-18T09:53:41.828Z,99011.14
2023-04-18T09:56:32.135Z,99007.65
2023-04-18T09:59:10.643Z,99002.27
2023-04-18T10:01:40.559Z,99006.00
2023-04-18T10:04:08.487Z,99010.20
2023-04-18T10:06:42.305Z,99010.05
2023-04-18T10:09:10.822Z,99010.05
2023-04-18T10:11:38.899Z,99019.48
2023-04-18T10:14:13.300Z,99014.05
2023-04-18T10:16:42.416Z,99014.14
2023-04-18T10:19:36.166Z,99009.34
2023-04-18T10:22:03.263Z,99013.29
2023-04-18T10:24:48.851Z,99011.08
2023-04-18T10:27:18.419Z,99009.41
2023-04-18T10:29:54.962Z,99013.05
2023-04-18T10:32:25.015Z,99004.72
2023-04-18T10:34:54.623Z,99003.73
2023-04-18T10:37:22.282Z,98996.90
2023-04-18T10:40:00.549Z,98999.30
2023-04-18T10:42:52.910Z,98993.56
2023-04-18T10:45:21.267Z,98987.79
2023-04-18T10:47:49.236Z,98987.24
2023-04-18T10:50:17.119Z,98990.80
2023-04-18T10:52:45.235Z,98989.17
2023-04-18T10:55:26.711Z,98986.42
2023-04-18T10:57:57.405Z,98986.55
2023-04-18T11:00:25.719Z,98987.25
2023-04-18T11:02:56.668Z,98984.35
2023-04-18T11:05:27.038Z,98981.59
2023-04-18T11:07:54.617Z,98988.52
2023-04-18T11:10:24.736Z,98983.02
2023-04-18T11:12:53.342Z,98985.37
2023-04-18T11:15:22.885Z,98978.77
2023-04-18T11:18:01.799Z,98986.05
2023-04-18T11:20:30.860Z,98985.11
2023-04-18T11:23:00.158Z,98987.21
2023-04-18T11:25:41.320Z,98987.48
2023-04-18T11:28:08.308Z,98990.27
2023-04-18T11:30:40.657Z,98987.33
2023-04-18T11:33:12.833Z,98988.86
2023-04-18T11:35:41.752Z,98982.83
2023-04-18T11:38:10.687Z,98983.70
2023-04-18T11:40:38.457Z,98978.98
2023-04-18T11:43:07.479Z,98971.05
2023-04-18T11:45:35.398Z,98972.10
2023-04-18T11:48:03.249Z,98966.21
2023-04-18T11:50:37.482Z,98967.34
2023-04-18T11:53:04.566Z,98963.05
2023-04-18T11:55:31.621Z,98965.48
2023-04-18T11:58:00.380Z,98967.14
2023-04-18T12:00:42.382Z,98966.86
2023-04-18T12:03:19.084Z,98969.23
2023-04-18T12:05:46.376Z,98966.17
2023-04-18T12:08:25.658Z,98968.46
2023-04-18T12:10:54.076Z,98965.52
2023-04-18T12:13:34.510Z,98967.88
2023-04-18T12:16:02.876Z,98972.59
2023-04-18T12:18:30.521Z,98965.77
2023-04-18T12:20:58.860Z,98967.72
2023-04-18T12:23:40.567Z,98967.16
2023-04-18T12:26:15.653Z,98962.13
2023-04-18T12:28:46.695Z,98962.81
2023-04-18T12:31:13.990Z,98965.02
2023-04-18T12:33:41.319Z,98964.14
2023-04-18T12:36:11.672Z,98962.85
2023-04-18T12:38:38.754Z,98960.77
2023-04-18T12:41:06.216Z,98950.55
2023-04-18T12:43:33.473Z,98941.09
2023-04-18T12:46:00.513Z,98951.40
2023-04-18T12:48:27.932Z,98942.70
2023-04-18T12:50:55.023Z,98952.33
2023-04-18T12:53:22.531Z,98947.02
2023-04-18T12:55:50.194Z,98953.17
2023-04-18T12:58:19.007Z,98949.03
2023-04-18T13:00:46.686Z,98938.91
2023-04-18T13:03:14.273Z,98940.51
2023-04-18T13:05:41.587Z,98936.64
2023-04-18T13:08:16.751Z,98940.60
2023-04-18T13:10:46.075Z,98939.55
2023-04-18T13:13:13.640Z,98933.13
2023-04-18T13:15:41.354Z,98933.58
2023-04-18T13:18:08.392Z,98938.89
2023-04-18T13:20:36.426Z,98937.69
2023-04-18T13:23:03.812Z,98938.26
2023-04-18T13:25:31.796Z,98937.99
2023-04-18T13:28:01.037Z,98936.41
2023-04-18T13:30:28.532Z,98935.27
2023-04-18T13:32:56.172Z,98933.81
2023-04-18T13:35:23.332Z,98939.02
2023-04-18T13:37:50.760Z,98938.81
2023-04-18T13:40:18.376Z,98943.25
2023-04-18T13:42:45.394Z,98939.05
2023-04-18T13:45:12.398Z,98941.80
2023-04-18T13:47:40.176Z,98943.50
2023-04-18T13:50:08.648Z,98935.81
2023-04-18T13:52:36.924Z,98931.13
2023-04-18T13:55:04.328Z,98937.77
2023-04-18T13:57:33.783Z,98935.91
2023-04-18T14:00:00.638Z,98933.98
2023-04-18T14:02:27.719Z,98936.80
2023-04-18T14:04:55.771Z,98938.23
2023-04-18T14:07:22.962Z,98936.02
2023-04-18T14:09:50.833Z,98934.71
2023-04-18T14:18:09.560Z,98936.88
2023-04-18T14:20:36.965Z,98936.80
2023-04-18T14:23:04.049Z,98936.24
2023-04-18T14:25:31.499Z,98934.84
2023-04-18T14:28:10.987Z,98937.43
2023-04-18T14:30:40.064Z,98938.63
2023-04-18T14:33:09.893Z,98933.23
2023-04-18T14:35:37.848Z,98935.18
2023-04-18T14:38:04.855Z,98938.96
2023-04-18T14:40:33.041Z,98942.02
2023-04-18T14:43:00.524Z,98940.21
2023-04-18T14:45:28.168Z,98937.36
2023-04-18T14:47:56.301Z,98938.85
2023-04-18T14:50:23.702Z,98935.67
2023-04-18T14:52:51.591Z,98937.71
2023-04-18T14:55:22.352Z,98936.75
2023-04-18T14:57:49.365Z,98931.65
2023-04-18T15:00:16.979Z,98930.08
2023-04-18T15:02:44.547Z,98927.92
2023-04-18T15:05:13.082Z,98925.98
2023-04-18T15:07:42.356Z,98925.62
2023-04-18T15:10:12.915Z,98923.48
2023-04-18T15:12:40.178Z,98929.26
2023-04-18T15:15:07.947Z,98922.27
2023-04-18T15:17:35.347Z,98927.46
2023-04-18T15:20:02.599Z,98925.59
2023-04-18T15:22:29.698Z,98922.49
2023-04-18T15:24:56.705Z,98925.02
2023-04-18T15:27:34.634Z,98926.42
2023-04-18T15:30:13.780Z,98926.09
2023-04-18T15:32:42.545Z,98927.71
2023-04-18T15:35:11.134Z,98928.48
2023-04-18T15:37:38.389Z,98929.30
2023-04-18T15:40:09.878Z,98936.10
2023-04-18T15:42:37.538Z,98940.43
2023-04-18T15:45:05.701Z,98940.20
2023-04-18T15:47:34.784Z,98937.61
2023-04-18T15:50:03.827Z,98937.94
2023-04-18T15:52:30.903Z,98940.60
2023-04-18T15:54:58.226Z,98942.34
2023-04-18T15:57:25.548Z,98937.10
2023-04-18T15:59:52.582Z,98941.33
2023-04-18T16:02:20.691Z,98940.42
2023-04-18T16:04:50.357Z,98943.15
2023-04-18T16:07:35.325Z,98941.36
2023-04-18T16:10:11.573Z,98945.11
2023-04-18T16:12:51.681Z,98946.11
2023-04-18T16:15:18.893Z,98945.26
2023-04-18T16:17:46.385Z,98949.80
2023-04-18T16:20:13.996Z,98950.14
2023-04-18T16:22:41.591Z,98951.66
2023-04-18T16:25:09.296Z,98952.77
2023-04-18T16:27:36.277Z,98948.71
2023-04-18T16:30:04.147Z,98952.20
2023-04-18T16:32:31.367Z,98954.91
2023-04-18T16:34:58.712Z,98954.29
2023-04-18T16:37:25.710Z,98955.31
2023-04-18T16:39:52.740Z,98955.20
2023-04-18T16:42:19.599Z,98957.54
2023-04-18T16:44:47.549Z,98956.23
2023-04-18T16:47:14.899Z,98958.88
2023-04-18T16:49:43.991Z,98957.63
2023-04-18T16:52:11.122Z,98957.46
2023-04-18T16:54:38.233Z,98961.41
2023-04-18T16:57:05.383Z,98956.27
2023-04-18T16:59:32.270Z,98957.73
2023-04-18T17:01:59.845Z,98959.23
2023-04-18T17:04:30.076Z,98957.63
2023-04-18T17:06:57.633Z,98962.95
2023-04-18T17:09:25.115Z,98961.50
2023-04-18T17:11:52.067Z,98968.08
2023-04-18T17:14:19.507Z,98967.37
2023-04-18T17:16:47.004Z,98968.19
2023-04-18T17:19:14.493Z,98968.06
2023-04-18T17:21:42.331Z,98969.78
2023-04-18T17:24:09.888Z,98967.84
2023-04-18T17:26:39.195Z,98968.08
2023-04-18T17:29:06.655Z,98970.45
2023-04-18T17:31:34.631Z,98969.58
2023-04-18T17:34:02.278Z,98971.20
2023-04-18T17:36:29.748Z,98971.52
2023-04-18T17:38:58.560Z,98975.61
2023-04-18T17:41:25.967Z,98978.03
2023-04-18T17:43:53.223Z,98975.07
2023-04-18T17:46:20.187Z,98980.05
2023-04-18T17:48:47.439Z,98979.83
2023-04-18T17:51:16.865Z,98978.55
2023-04-18T17:53:43.886Z,98983.97
2023-04-18T17:56:11.304Z,98984.36
2023-04-18T17:58:38.351Z,98987.52
2023-04-18T18:01:17.744Z,98988.13
2023-04-18T18:03:45.393Z,98986.70
2023-04-18T18:06:14.320Z,98990.54
2023-04-18T18:08:42.894Z,98992.77
2023-04-18T18:11:11.205Z,98994.13
2023-04-18T18:13:42.026Z,98990.95
2023-04-18T18:16:09.489Z,98999.98
2023-04-18T18:18:37.657Z,98996.33
2023-04-18T18:21:05.206Z,99000.38
2023-04-18T18:23:32.242Z,98999.56
2023-04-18T18:26:00.147Z,99002.66
2023-04-18T18:28:27.193Z,99002.94
2023-04-18T18:30:54.191Z,99000.80
2023-04-18T18:33:21.266Z,99001.99
2023-04-18T18:35:48.509Z,99001.23
2023-04-18T18:38:15.349Z,98996.92
2023-04-18T18:40:42.547Z,99000.42
2023-04-18T18:43:09.605Z,99001.88
2023-04-18T18:45:36.804Z,99001.98
2023-04-18T18:48:04.362Z,99002.66
2023-04-18T18:50:31.523Z,99002.45
2023-04-18T18:52:58.866Z,99005.61
2023-04-18T18:55:27.035Z,99003.30
2023-04-18T18:57:54.325Z,99004.21
2023-04-18T19:00:21.865Z,99000.82
2023-04-18T19:02:49.556Z,98999.20
2023-04-18T19:05:17.837Z,99005.57
2023-04-18T19:07:45.245Z,99007.05
2023-04-18T19:10:12.631Z,99009.16
2023-04-18T19:12:39.747Z,99010.95
2023-04-18T19:15:07.788Z,99010.77
2023-04-18T19:17:34.747Z,99011.02
2023-04-18T19:20:02.016Z,99011.81
2023-04-18T19:22:29.931Z,99008.59
2023-04-18T19:24:57.467Z,99011.67
2023-04-18T19:27:24.353Z,99010.14
2023-04-18T19:29:51.705Z,99008.27
2023-04-18T19:32:18.650Z,99008.60
2023-04-18T19:34:45.910Z,99009.66
2023-04-18T19:37:13.107Z,99014.48
2023-04-18T19:39:40.085Z,99009.76
2023-04-18T19:42:07.758Z,99014.54
2023-04-18T19:44:35.194Z,99011.40
2023-04-18T19:47:02.350Z,99008.81
2023-04-18T19:49:29.508Z,99008.42
2023-04-18T19:51:56.552Z,99010.52
2023-04-18T19:54:23.518Z,99014.25
2023-04-18T19:56:51.187Z,99010.52
2023-04-18T19:59:18.150Z,99005.68
2023-04-18T20:01:45.365Z,99012.77
2023-04-18T20:04:12.702Z,99012.19
2023-04-18T20:06:39.752Z,99012.53
2023-04-18T20:09:07.182Z,99013.91
2023-04-18T20:11:34.566Z,99015.73
2023-04-18T20:14:01.608Z,99018.16
2023-04-18T20:16:29.022Z,99017.60
2023-04-18T20:18:56.898Z,99013.78
2023-04-18T20:21:23.750Z,99012.52
2023-04-18T20:23:51.352Z,99012.97
2023-04-18T20:26:18.236Z,99012.98
2023-04-18T20:28:45.602Z,99008.72
2023-04-18T20:31:13.090Z,99010.11
2023-04-18T20:33:40.043Z,99011.83
2023-04-18T20:36:07.762Z,99009.02
2023-04-18T20:38:34.738Z,99004.13
2023-04-18T20:41:02.330Z,99003.88
2023-04-18T20:43:29.381Z,99004.78
2023-04-18T20:45:59.214Z,99006.79
2023-04-18T20:48:26.705Z,99006.17
2023-04-18T20:50:53.910Z,99001.11
2023-04-18T20:53:22.872Z,99000.83
2023-04-18T20:55:50.264Z,99002.83
2023-04-18T20:58:17.539Z,99003.55
2023-04-18T21:00:48.635Z,98999.48
2023-04-18T21:03:16.963Z,98998.26
2023-04-18T21:05:45.270Z,98993.12
2023-04-18T21:08:13.025Z,98989.02
2023-04-18T21:10:40.144Z,98985.99
2023-04-18T21:13:07.389Z,98981.48
2023-04-18T21:15:36.071Z,98981.56
2023-04-18T21:18:03.125Z,98980.89
2023-04-18T21:20:30.235Z,98978.45
2023-04-18T21:22:57.747Z,98974.13
2023-04-18T21:25:24.730Z,98971.30
2023-04-18T21:27:52.189Z,98968.56
2023-04-18T21:30:19.154Z,98963.94
2023-04-18T21:32:47.480Z,98966.19
2023-04-18T21:35:15.024Z,98963.52
2023-04-18T21:37:43.191Z,98965.24
2023-04-18T21:40:10.866Z,98963.63
2023-04-18T21:42:38.392Z,98964.45
2023-04-18T21:45:06.736Z,98964.31
2023-04-18T21:47:34.162Z,98960.53
2023-04-18T21:50:01.225Z,98957.91
2023-04-18T21:52:28.227Z,98954.70
2023-04-18T21:54:55.585Z,98957.17
2023-04-18T21:57:22.627Z,98952.52
2023-04-18T21:59:49.585Z,98951.06
2023-04-18T22:02:16.729Z,98954.73
2023-04-18T22:04:44.523Z,98948.19
2023-04-18T22:07:13.143Z,98947.05
2023-04-18T22:09:40.064Z,98941.98
2023-04-18T22:12:07.270Z,98936.63
2023-04-18T22:14:34.789Z,98931.02
2023-04-18T22:17:03.676Z,98929.39
2023-04-18T22:19:31.755Z,98923.32
2023-04-18T22:21:59.031Z,98921.92
2023-04-18T22:24:26.398Z,98920.00
2023-04-18T22:26:53.828Z,98914.54
2023-04-18T22:29:20.910Z,98912.83
2023-04-18T22:31:47.961Z,98909.85
2023-04-18T22:34:15.079Z,98903.64
2023-04-18T22:36:44.504Z,98903.86
2023-04-18T22:39:12.573Z,98900.41
2023-04-18T22:41:39.441Z,98900.15
2023-04-18T22:44:06.685Z,98899.66
2023-04-18T22:46:33.622Z,98897.34
2023-04-18T22:49:00.866Z,98897.02
2023-04-18T22:51:28.998Z,98892.61
2023-04-18T22:53:56.700Z,98886.55
2023-04-18T22:56:23.689Z,98885.21
2023-04-18T22:58:51.270Z,98879.35
2023-04-18T23:01:18.851Z,98875.65
2023-04-18T23:03:46.405Z,98875.66
2023-04-18T23:06:13.561Z,98871.53
2023-04-18T23:08:40.466Z,98871.05
2023-04-18T23:11:13.851Z,98867.64
2023-04-18T23:13:40.816Z,98864.08
2023-04-18T23:16:08.388Z,98860.36
2023-04-18T23:18:35.472Z,98855.96
2023-04-18T23:21:02.297Z,98855.49
2023-04-18T23:23:29.226Z,98853.45
2023-04-18T23:25:55.988Z,98846.44
2023-04-18T23:28:22.952Z,98847.55
2023-04-18T23:30:50.773Z,98843.12
2023-04-18T23:33:17.629Z,98836.98
2023-04-18T23:35:44.454Z,98838.92
2023-04-18T23:38:11.335Z,98832.03
2023-04-18T23:40:38.333Z,98829.58
2023-04-18T23:43:05.217Z,98825.42
2023-04-18T23:45:32.230Z,98822.09
2023-04-18T23:47:59.145Z,98822.60
2023-04-18T23:50:26.257Z,98819.32
2023-04-18T23:52:53.208Z,98817.67
2023-04-18T23:55:20.117Z,98815.92
2023-04-18T23:57:47.055Z,98811.91
